Time;durP1;ratioP1;P1;durP2;ratioP2;P2;SDS_P1;SDS_P2;PMS_P1;PMS_P2;Temp;Humidity;BMP_temperature;BMP_pressure;BME280_temperature;BME280_humidity;BME280_pressure;Samples;Min_cycle;Max_cycle;Signal;HPM_P1;HPM_P2
2024/01/07 00:01:24;;;;;;;33.58;27.67;;;;;;;0.86;100.00;101650.16;5125612;27;20030;-81
2024/01/07 00:03:52;;;;;;;33.95;28.17;;;;;;;0.83;100.00;101654.53;5105437;28;20019;-82
2024/01/07 00:06:17;;;;;;;32.05;28.17;;;;;;;0.82;100.00;101647.66;5107731;28;20384;-81
2024/01/07 00:08:43;;;;;;;32.97;28.20;;;;;;;0.80;100.00;101645.09;5126158;27;20498;-81
2024/01/07 00:11:08;;;;;;;32.20;27.67;;;;;;;0.81;100.00;101645.94;5126196;28;20027;-81
2024/01/07 00:13:34;;;;;;;33.15;28.85;;;;;;;0.81;100.00;101651.13;5109982;28;20480;-81
2024/01/07 00:15:59;;;;;;;33.92;29.27;;;;;;;0.80;100.00;101662.34;5108206;28;20023;-80
2024/01/07 00:18:24;;;;;;;35.22;29.75;;;;;;;0.79;100.00;101661.50;5111596;28;20043;-82
2024/01/07 00:20:50;;;;;;;36.10;30.75;;;;;;;0.78;100.00;101669.28;5089900;28;20016;-80
2024/01/07 00:23:16;;;;;;;36.17;30.83;;;;;;;0.76;100.00;101663.28;5106309;28;20027;-81
2024/01/07 00:25:41;;;;;;;36.45;32.33;;;;;;;0.74;100.00;101662.47;5110684;28;20391;-81
2024/01/07 00:28:06;;;;;;;36.90;31.48;;;;;;;0.75;100.00;101666.75;5096563;27;20394;-81
2024/01/07 00:30:32;;;;;;;38.20;32.28;;;;;;;0.73;100.00;101660.75;5126139;27;20024;-81
2024/01/07 00:32:58;;;;;;;37.22;31.25;;;;;;;0.74;100.00;101665.06;5118103;27;20495;-81
2024/01/07 00:35:23;;;;;;;35.70;31.27;;;;;;;0.73;100.00;101664.22;5112574;27;20035;-80
2024/01/07 00:37:48;;;;;;;33.92;30.25;;;;;;;0.74;100.00;101671.09;5131627;27;20019;-80
2024/01/07 00:40:14;;;;;;;34.10;30.10;;;;;;;0.74;100.00;101676.28;5122439;27;20020;-81
2024/01/07 00:42:39;;;;;;;34.45;30.75;;;;;;;0.74;100.00;101680.59;5094145;28;20016;-80
2024/01/07 00:45:05;;;;;;;34.10;30.50;;;;;;;0.73;100.00;101673.72;5093119;28;20037;-81
2024/01/07 00:47:30;;;;;;;34.28;30.50;;;;;;;0.77;100.00;101675.34;5112423;28;20510;-82
2024/01/07 00:49:56;;;;;;;35.40;31.48;;;;;;;0.76;100.00;101682.28;5119223;27;20031;-81
2024/01/07 00:52:23;;;;;;;34.65;30.88;;;;;;;0.76;100.00;101684.88;5111232;27;20110;-80
2024/01/07 00:54:48;;;;;;;32.97;29.45;;;;;;;0.79;100.00;101683.94;5127650;27;20447;-80
2024/01/07 00:57:14;;;;;;;32.03;28.73;;;;;;;0.80;100.00;101683.94;5113944;27;20110;-80
2024/01/07 00:59:39;;;;;;;33.13;29.73;;;;;;;0.81;100.00;101685.66;5128378;27;20482;-80
2024/01/07 01:02:05;;;;;;;32.67;29.27;;;;;;;0.82;100.00;101694.28;5126742;27;20058;-80
2024/01/07 01:04:30;;;;;;;31.30;28.20;;;;;;;0.78;100.00;101687.41;5107473;27;20478;-80
2024/01/07 01:06:56;;;;;;;32.08;28.88;;;;;;;0.75;100.00;101688.34;5110738;27;20067;-80
2024/01/07 01:09:21;;;;;;;30.13;27.10;;;;;;;0.77;100.00;101696.06;5129619;27;20055;-80
2024/01/07 01:11:46;;;;;;;31.88;28.75;;;;;;;0.75;100.00;101697.84;5112058;27;20204;-81
2024/01/07 01:14:12;;;;;;;30.85;27.77;;;;;;;0.76;100.00;101691.78;5102879;27;20475;-80
2024/01/07 01:16:37;;;;;;;28.88;26.08;;;;;;;0.77;100.00;101696.06;5123088;27;20042;-81
2024/01/07 01:19:02;;;;;;;30.58;27.58;;;;;;;0.77;100.00;101707.28;5130140;27;20172;-81
2024/01/07 01:21:28;;;;;;;30.55;27.35;;;;;;;0.75;100.00;101709.06;5130589;27;20722;-81
2024/01/07 01:23:54;;;;;;;30.40;27.40;;;;;;;0.74;100.00;101706.50;5126278;27;20098;-81
2024/01/07 01:26:22;;;;;;;31.05;27.83;;;;;;;0.73;100.00;101707.38;5104661;27;20055;-81
2024/01/07 01:28:48;;;;;;;29.15;26.35;;;;;;;0.76;100.00;101704.72;5111828;27;20444;-80
2024/01/07 01:31:14;;;;;;;29.92;27.02;;;;;;;0.74;100.00;101711.69;5112012;27;20034;-80
2024/01/07 01:33:40;;;;;;;29.17;26.27;;;;;;;0.76;100.00;101704.72;5130415;27;20027;-81
2024/01/07 01:36:06;;;;;;;29.20;26.30;;;;;;;0.75;100.00;101709.06;5128883;27;20437;-80
2024/01/07 01:38:31;;;;;;;30.33;27.25;;;;;;;0.76;100.00;101715.09;5112640;27;20023;-80
2024/01/07 01:41:00;;;;;;;29.63;26.63;;;;;;;0.74;100.00;101716.84;5114087;27;20510;-81
2024/01/07 01:43:29;;;;;;;29.20;26.30;;;;;;;0.73;100.00;101730.69;5109969;27;20019;-80
2024/01/07 01:45:55;;;;;;;32.05;28.75;;;;;;;0.71;100.00;101727.28;5112777;27;20045;-81
2024/01/07 01:48:22;;;;;;;32.42;29.02;;;;;;;0.73;100.00;101730.69;5120704;27;20062;-80
2024/01/07 01:50:48;;;;;;;33.85;30.35;;;;;;;0.70;100.00;101735.94;5107133;27;20031;-80
2024/01/07 01:53:14;;;;;;;32.88;29.35;;;;;;;0.71;100.00;101735.91;5112387;27;21110;-81
2024/01/07 01:55:43;;;;;;;33.92;30.30;;;;;;;0.71;100.00;101737.63;5112274;27;20406;-81
2024/01/07 01:58:13;;;;;;;34.70;30.98;;;;;;;0.73;100.00;101743.63;5131225;27;20026;-81
2024/01/07 02:00:39;;;;;;;33.80;30.20;;;;;;;0.72;100.00;101745.38;5120441;27;20157;-80
2024/01/07 02:03:04;;;;;;;35.78;31.85;;;;;;;0.72;100.00;101739.34;5125224;27;20114;-81
2024/01/07 02:05:30;;;;;;;35.60;31.80;;;;;;;0.71;100.00;101745.41;5111081;27;20096;-81
2024/01/07 02:07:56;;;;;;;35.47;31.42;;;;;;;0.70;100.00;101747.13;5093230;27;20602;-81
2024/01/07 02:10:22;;;;;;;34.83;30.65;;;;;;;0.73;100.00;101751.41;5097941;27;20058;-81
2024/01/07 02:12:48;;;;;;;35.22;31.38;;;;;;;0.72;100.00;101749.69;5111011;28;20365;-81
2024/01/07 02:15:13;;;;;;;36.83;32.65;;;;;;;0.72;100.00;101749.69;5103638;27;20027;-81
2024/01/07 02:17:39;;;;;;;36.58;32.55;;;;;;;0.69;100.00;101745.44;5125574;27;20608;-81
2024/01/07 02:20:05;;;;;;;38.40;33.88;;;;;;;0.67;100.00;101751.53;5116308;27;20034;-81
2024/01/07 02:22:30;;;;;;;39.75;35.30;;;;;;;0.66;100.00;101753.25;5128662;27;20023;-81
2024/01/07 02:24:55;;;;;;;41.28;36.55;;;;;;;0.67;100.00;101754.13;5129625;27;20470;-81
2024/01/07 02:27:21;;;;;;;41.88;35.65;;;;;;;0.65;100.00;101758.47;5104542;28;20042;-81
2024/01/07 02:29:46;;;;;;;45.35;38.17;;;;;;;0.65;100.00;101768.84;5090548;28;20028;-81
2024/01/07 02:32:11;;;;;;;44.10;37.90;;;;;;;0.62;100.00;101760.25;5110296;27;20044;-81
2024/01/07 02:34:37;;;;;;;43.85;37.10;;;;;;;0.62;100.00;101761.97;5090918;28;20023;-81
2024/01/07 02:37:02;;;;;;;44.08;35.42;;;;;;;0.58;100.00;101758.59;5108417;28;20023;-81
2024/01/07 02:39:28;;;;;;;43.42;35.95;;;;;;;0.57;100.00;101763.78;5100844;27;20034;-81
2024/01/07 02:41:53;;;;;;;44.90;35.45;;;;;;;0.55;100.00;101765.56;5129652;27;20023;-81
2024/01/07 02:44:22;;;;;;;42.33;34.10;;;;;;;0.54;100.00;101764.72;5111385;27;20440;-81
2024/01/07 02:46:47;;;;;;;43.15;34.17;;;;;;;0.53;100.00;101769.91;5090384;28;20028;-81
2024/01/07 02:49:13;;;;;;;43.90;34.58;;;;;;;0.51;100.00;101769.09;5089858;28;20031;-81
2024/01/07 02:51:38;;;;;;;46.95;36.17;;;;;;;0.48;100.00;101772.59;5089741;28;20031;-81
2024/01/07 02:54:04;;;;;;;49.17;38.08;;;;;;;0.49;100.00;101769.13;5126178;27;20042;-81
2024/01/07 02:56:29;;;;;;;50.03;38.80;;;;;;;0.52;100.00;101776.81;5127414;27;20011;-81
2024/01/07 02:58:54;;;;;;;53.30;40.83;;;;;;;0.49;100.00;101787.25;5104354;28;20066;-82
2024/01/07 03:01:23;;;;;;;58.90;42.60;;;;;;;0.44;100.00;101785.63;5110750;27;20024;-81
2024/01/07 03:03:48;;;;;;;57.42;42.10;;;;;;;0.43;100.00;101787.34;5098130;28;20019;-81
2024/01/07 03:06:13;;;;;;;55.58;42.95;;;;;;;0.42;100.00;101788.22;5095323;28;20027;-81
2024/01/07 03:08:39;;;;;;;61.45;43.95;;;;;;;0.41;100.00;101791.69;5127141;27;20027;-81
2024/01/07 03:11:06;;;;;;;64.03;46.28;;;;;;;0.39;100.00;101793.44;5108514;27;20383;-81
2024/01/07 03:13:32;;;;;;;65.32;45.50;;;;;;;0.42;100.00;101793.41;5129972;27;20019;-81
2024/01/07 03:16:00;;;;;;;69.35;48.13;;;;;;;0.41;100.00;101796.88;5109098;27;20068;-81
2024/01/07 03:18:28;;;;;;;66.65;47.97;;;;;;;0.42;100.00;101793.41;5109352;27;20034;-81
2024/01/07 03:20:53;;;;;;;33.72;13.93;;;;;;;0.50;100.00;101804.47;5110019;27;20035;-81
2024/01/07 03:23:18;;;;;;;24.05;8.85;;;;;;;0.53;100.00;101806.16;5090973;28;20106;-81
2024/01/07 03:25:44;;;;;;;75.43;49.70;;;;;;;0.44;100.00;101802.00;5112608;27;20022;-81
2024/01/07 03:28:09;;;;;;;74.07;49.53;;;;;;;0.44;100.00;101807.19;5129444;27;20019;-81
2024/01/07 03:30:34;;;;;;;76.10;51.72;;;;;;;0.44;100.00;101804.59;5112800;27;20027;-81
2024/01/07 03:33:00;;;;;;;76.97;52.20;;;;;;;0.44;100.00;101807.19;5111201;27;20134;-81
2024/01/07 03:35:25;;;;;;;76.75;51.33;;;;;;;0.45;100.00;101805.44;5089722;28;20108;-81
2024/01/07 03:37:50;;;;;;;74.93;51.35;;;;;;;0.45;100.00;101803.72;5090466;28;20620;-81
2024/01/07 03:40:16;;;;;;;79.80;52.83;;;;;;;0.45;100.00;101808.88;5117979;27;20489;-81
2024/01/07 03:42:41;;;;;;;77.05;53.05;;;;;;;0.44;100.00;101812.34;5125117;27;20094;-81
2024/01/07 03:45:07;;;;;;;75.63;52.30;;;;;;;0.49;100.00;101815.72;5107465;27;20035;-81
2024/01/07 03:47:32;;;;;;;74.57;52.88;;;;;;;0.48;100.00;101813.16;5108600;27;20023;-81
2024/01/07 03:50:01;;;;;;;71.78;51.83;;;;;;;0.49;100.00;101820.91;5094346;28;20088;-82
2024/01/07 03:52:26;;;;;;;69.45;50.53;;;;;;;0.52;100.00;101820.00;5089458;28;20042;-81
2024/01/07 03:54:51;;;;;;;67.43;50.10;;;;;;;0.53;100.00;101817.38;5107295;28;20032;-81
2024/01/07 03:57:17;;;;;;;64.57;48.47;;;;;;;0.54;100.00;101821.66;5089340;28;20027;-80
2024/01/07 03:59:42;;;;;;;57.05;45.30;;;;;;;0.52;100.00;101827.75;5108587;27;20127;-80
2024/01/07 04:02:09;;;;;;;58.05;44.45;;;;;;;0.52;100.00;101831.19;5096965;27;20022;-81
2024/01/07 04:04:35;;;;;;;52.38;41.50;;;;;;;0.53;100.00;101825.13;5120187;28;20027;-80
2024/01/07 04:07:00;;;;;;;56.25;43.63;;;;;;;0.54;100.00;101833.75;5093178;28;20024;-82
2024/01/07 04:09:26;;;;;;;55.08;42.63;;;;;;;0.58;100.00;101836.25;5119924;28;20412;-82
2024/01/07 04:11:51;;;;;;;53.47;42.33;;;;;;;0.59;100.00;101837.13;5127403;28;20029;-81
2024/01/07 04:14:17;;;;;;;50.88;40.80;;;;;;;0.59;100.00;101844.88;5124646;27;20630;-81
2024/01/07 04:16:42;;;;;;;52.75;41.88;;;;;;;0.58;100.00;101846.63;5090373;28;20067;-81
2024/01/07 04:19:08;;;;;;;53.40;41.47;;;;;;;0.60;100.00;101844.00;5108125;28;20043;-82
2024/01/07 04:21:33;;;;;;;50.80;41.60;;;;;;;0.61;100.00;101841.38;5123708;28;20799;-81
2024/01/07 04:23:58;;;;;;;49.67;40.30;;;;;;;0.64;100.00;101840.47;5108738;28;20478;-81
2024/01/07 04:26:24;;;;;;;51.47;41.58;;;;;;;0.62;100.00;101843.09;5112126;28;20070;-82
2024/01/07 04:28:49;;;;;;;46.22;39.22;;;;;;;0.62;100.00;101850.88;5125618;28;20049;-81
2024/01/07 04:31:15;;;;;;;47.05;39.65;;;;;;;0.63;100.00;101856.91;5112438;27;20042;-82
2024/01/07 04:33:40;;;;;;;45.38;36.78;;;;;;;0.61;100.00;101861.25;5123606;28;20027;-81
2024/01/07 04:36:06;;;;;;;43.75;36.50;;;;;;;0.60;100.00;101857.81;5107611;28;20041;-81
2024/01/07 04:38:31;;;;;;;42.85;36.58;;;;;;;0.60;100.00;101862.13;5115115;28;20029;-81
2024/01/07 04:40:59;;;;;;;46.88;36.72;;;;;;;0.60;100.00;101870.75;5124034;27;21062;-79
2024/01/07 04:43:25;;;;;;;44.35;36.13;;;;;;;0.60;100.00;101868.16;5126657;28;20363;-82
2024/01/07 04:45:50;;;;;;;46.95;36.08;;;;;;;0.57;100.00;101870.81;5127965;28;20072;-81
2024/01/07 04:48:15;;;;;;;45.78;38.05;;;;;;;0.56;100.00;101874.28;5107600;27;20514;-81
2024/01/07 04:50:44;;;;;;;45.58;37.45;;;;;;;0.58;100.00;101876.84;5126809;28;20466;-81
2024/01/07 04:53:09;;;;;;;47.90;37.55;;;;;;;0.52;100.00;101877.78;5107705;28;20024;-81
2024/01/07 04:55:36;;;;;;;45.75;37.15;;;;;;;0.50;100.00;101882.16;5107186;28;20026;-80
2024/01/07 04:58:01;;;;;;;45.53;36.47;;;;;;;0.50;100.00;101879.56;5126566;27;20486;-81
2024/01/07 05:00:27;;;;;;;45.58;35.70;;;;;;;0.48;100.00;101886.50;5109565;27;20106;-81
2024/01/07 05:02:53;;;;;;;45.28;35.85;;;;;;;0.50;100.00;101886.47;5128303;28;20019;-80
2024/01/07 05:05:18;;;;;;;45.08;35.55;;;;;;;0.48;100.00;101886.50;5113222;28;20028;-81
2024/01/07 05:07:44;;;;;;;44.40;36.42;;;;;;;0.51;100.00;101890.78;5109968;28;20080;-81
2024/01/07 05:10:09;;;;;;;40.08;34.05;;;;;;;0.51;100.00;101896.81;5096467;27;20088;-81
2024/01/07 05:12:35;;;;;;;40.28;33.13;;;;;;;0.51;100.00;101889.03;5130430;27;20027;-80
2024/01/07 05:15:00;;;;;;;41.88;33.70;;;;;;;0.49;100.00;101890.78;5128747;27;20023;-81
2024/01/07 05:17:26;;;;;;;37.30;30.25;;;;;;;0.48;100.00;101891.69;5130627;27;20428;-81
2024/01/07 05:19:51;;;;;;;34.95;29.55;;;;;;;0.47;100.00;101900.31;5130192;27;20072;-80
2024/01/07 05:22:16;;;;;;;31.67;27.75;;;;;;;0.48;100.00;101902.03;5099461;28;20023;-80
2024/01/07 05:24:42;;;;;;;30.40;27.08;;;;;;;0.45;100.00;101902.06;5126644;27;20035;-80
2024/01/07 05:27:08;;;;;;;31.38;26.58;;;;;;;0.46;100.00;101902.94;5129310;27;20064;-81
2024/01/07 05:29:34;;;;;;;29.65;26.42;;;;;;;0.50;100.00;101909.78;5131570;27;20521;-81
2024/01/07 05:32:00;;;;;;;27.30;24.48;;;;;;;0.49;100.00;101918.41;5130590;27;20023;-81
2024/01/07 05:34:26;;;;;;;29.33;26.17;;;;;;;0.48;100.00;101922.75;5111372;27;20055;-81
2024/01/07 05:36:52;;;;;;;29.38;25.30;;;;;;;0.43;100.00;101924.53;5129856;27;20098;-81
2024/01/07 05:39:17;;;;;;;28.20;25.20;;;;;;;0.43;100.00;101929.72;5120808;27;20147;-82
2024/01/07 05:41:42;;;;;;;28.70;25.58;;;;;;;0.43;100.00;101929.72;5109186;28;20118;-81
2024/01/07 05:44:08;;;;;;;27.25;24.23;;;;;;;0.42;100.00;101930.59;5109853;27;20047;-80
2024/01/07 05:46:33;;;;;;;28.15;25.15;;;;;;;0.43;100.00;101940.06;5111622;27;20027;-81
2024/01/07 05:48:59;;;;;;;26.23;23.52;;;;;;;0.40;100.00;101932.34;5113053;27;20464;-80
2024/01/07 05:51:24;;;;;;;27.08;24.38;;;;;;;0.39;100.00;101940.13;5119227;27;20036;-80
2024/01/07 05:53:50;;;;;;;26.00;23.30;;;;;;;0.39;100.00;101940.97;5111568;27;20379;-80
2024/01/07 05:56:15;;;;;;;26.08;23.48;;;;;;;0.38;100.00;101941.84;5111941;27;20023;-80
2024/01/07 05:58:40;;;;;;;24.60;22.10;;;;;;;0.36;100.00;101948.78;5122383;27;20035;-80
2024/01/07 06:01:08;;;;;;;25.50;23.02;;;;;;;0.34;100.00;101945.38;5090880;28;20019;-80
2024/01/07 06:03:33;;;;;;;25.70;23.20;;;;;;;0.32;100.00;101947.13;5110357;27;20029;-80
2024/01/07 06:05:59;;;;;;;26.17;23.58;;;;;;;0.32;100.00;101947.97;5107168;28;20054;-82
2024/01/07 06:08:25;;;;;;;27.25;24.17;;;;;;;0.32;100.00;101952.28;5101748;28;20030;-80
2024/01/07 06:10:51;;;;;;;24.77;22.27;;;;;;;0.32;100.00;101962.66;5110110;28;20052;-81
2024/01/07 06:13:16;;;;;;;24.45;21.95;;;;;;;0.32;100.00;101957.47;5123911;27;20054;-80
2024/01/07 06:15:42;;;;;;;24.23;21.80;;;;;;;0.32;100.00;101966.09;5127211;27;20031;-81
2024/01/07 06:18:07;;;;;;;23.30;21.00;;;;;;;0.30;100.00;101969.56;5126971;27;20027;-80
2024/01/07 06:20:33;;;;;;;23.40;20.92;;;;;;;0.30;100.00;101982.53;5111776;27;20371;-81
2024/01/07 06:22:58;;;;;;;22.27;20.00;;;;;;;0.30;100.00;101973.03;5107548;27;20538;-81
2024/01/07 06:25:26;;;;;;;20.20;18.20;;;;;;;0.28;100.00;101972.19;5106076;28;20023;-81
2024/01/07 06:27:54;;;;;;;21.35;19.35;;;;;;;0.26;100.00;101980.84;5113561;27;20027;-81
2024/01/07 06:30:22;;;;;;;22.58;20.38;;;;;;;0.30;100.00;101990.28;5129389;27;20031;-81
2024/01/07 06:32:48;;;;;;;21.23;19.13;;;;;;;0.29;100.00;101994.59;5120085;27;20027;-81
2024/01/07 06:35:13;;;;;;;23.15;20.85;;;;;;;0.30;100.00;102004.09;5129889;27;20381;-80
2024/01/07 06:37:39;;;;;;;24.65;22.17;;;;;;;0.30;100.00;102001.50;5129431;27;20023;-80
2024/01/07 06:40:04;;;;;;;25.35;22.63;;;;;;;0.31;100.00;102007.53;5125149;27;20415;-80
2024/01/07 06:42:30;;;;;;;25.25;22.88;;;;;;;0.30;100.00;102006.66;5108296;28;20031;-80
2024/01/07 06:44:55;;;;;;;25.20;22.65;;;;;;;0.31;100.00;102012.69;5110496;28;20074;-80
2024/01/07 06:47:21;;;;;;;25.35;22.75;;;;;;;0.33;100.00;102016.13;5109860;27;20038;-82
2024/01/07 06:49:46;;;;;;;26.63;23.92;;;;;;;0.31;100.00;102017.88;5101347;27;20103;-80
2024/01/07 06:52:11;;;;;;;26.27;23.63;;;;;;;0.27;100.00;102022.25;5129787;27;20027;-81
2024/01/07 06:54:39;;;;;;;28.50;25.70;;;;;;;0.29;100.00;102024.81;5130022;27;20038;-81
2024/01/07 06:57:04;;;;;;;27.33;24.65;;;;;;;0.26;100.00;102030.03;5129706;27;20049;-81
2024/01/07 06:59:29;;;;;;;29.67;26.67;;;;;;;0.23;100.00;102030.91;5129660;27;20023;-80
2024/01/07 07:01:56;;;;;;;30.52;27.52;;;;;;;0.23;100.00;102035.25;5114205;27;20039;-80
2024/01/07 07:04:22;;;;;;;30.05;26.95;;;;;;;0.24;100.00;102035.22;5110270;27;20028;-81
2024/01/07 07:06:47;;;;;;;31.58;27.60;;;;;;;0.22;100.00;102041.28;5108372;27;20023;-81
2024/01/07 07:09:14;;;;;;;30.83;27.55;;;;;;;0.23;100.00;102043.00;5128938;27;20515;-81
2024/01/07 07:11:40;;;;;;;31.15;27.85;;;;;;;0.20;100.00;102045.63;5126777;27;20027;-80
2024/01/07 07:14:06;;;;;;;31.80;28.40;;;;;;;0.23;100.00;102045.59;5126712;27;20444;-81
2024/01/07 07:16:31;;;;;;;31.75;28.58;;;;;;;0.21;100.00;102049.94;5108611;28;20435;-81
2024/01/07 07:18:59;;;;;;;31.25;27.85;;;;;;;0.19;100.00;102052.53;5100756;27;20041;-81
2024/01/07 07:21:26;;;;;;;31.52;28.42;;;;;;;0.18;100.00;102056.00;5110793;27;20039;-81
2024/01/07 07:23:52;;;;;;;31.15;28.05;;;;;;;0.15;100.00;102062.94;5106620;27;20487;-81
2024/01/07 07:26:17;;;;;;;32.10;28.80;;;;;;;0.15;100.00;102068.13;5096670;27;20042;-81
2024/01/07 07:28:42;;;;;;;32.17;28.88;;;;;;;0.12;100.00;102062.97;5120774;27;20098;-80
2024/01/07 07:31:08;;;;;;;32.30;28.90;;;;;;;0.11;100.00;102066.44;5097514;28;20031;-80
2024/01/07 07:33:33;;;;;;;30.63;27.50;;;;;;;0.09;100.00;102073.38;5104179;27;20141;-80
2024/01/07 07:35:59;;;;;;;31.70;28.60;;;;;;;0.10;100.00;102075.94;5123804;27;20460;-80
2024/01/07 07:38:24;;;;;;;23.95;11.23;;;;;;;0.17;100.00;102087.06;5090232;28;20138;-81
2024/01/07 07:40:52;;;;;;;30.98;27.67;;;;;;;0.11;100.00;102092.31;5110354;27;20059;-81
2024/01/07 07:43:21;;;;;;;31.20;27.98;;;;;;;0.10;100.00;102094.03;5116069;27;20035;-80
2024/01/07 07:45:47;;;;;;;30.70;27.60;;;;;;;0.11;100.00;102100.06;5096599;28;20027;-80
2024/01/07 07:48:12;;;;;;;30.23;27.20;;;;;;;0.11;100.00;102100.06;5116415;27;20028;-80
2024/01/07 07:50:37;;;;;;;30.52;27.27;;;;;;;0.13;100.00;102116.44;5090667;28;20035;-81
2024/01/07 07:53:03;;;;;;;28.90;26.08;;;;;;;0.13;100.00;102122.47;5093271;28;20030;-81
2024/01/07 07:55:28;;;;;;;25.50;23.08;;;;;;;0.12;100.00;102115.59;5110878;27;20041;-81
2024/01/07 07:57:54;;;;;;;20.25;18.25;;;;;;;0.15;100.00;102135.41;5107168;27;20494;-81
2024/01/07 08:00:22;;;;;;;20.45;18.42;;;;;;;0.08;100.00;102137.19;5096405;27;20023;-81
2024/01/07 08:02:47;;;;;;;19.90;17.98;;;;;;;0.08;100.00;102126.00;5109111;28;20031;-80
2024/01/07 08:05:13;;;;;;;20.83;18.55;;;;;;;0.03;100.00;102138.97;5109529;28;20023;-80
2024/01/07 08:07:39;;;;;;;20.10;18.02;;;;;;;-0.01;100.00;102132.94;5128626;28;20278;-80
2024/01/07 08:10:05;;;;;;;20.40;18.20;;;;;;;-0.01;100.00;102134.66;5127914;27;20062;-80
2024/01/07 08:12:31;;;;;;;20.55;18.48;;;;;;;-0.01;100.00;102137.25;5118906;28;20027;-80
2024/01/07 08:14:56;;;;;;;20.63;18.17;;;;;;;-0.03;100.00;102139.84;5117472;28;20034;-80
2024/01/07 08:17:21;;;;;;;20.65;18.48;;;;;;;-0.03;100.00;102137.28;5107127;28;20035;-80
2024/01/07 08:19:47;;;;;;;20.33;18.23;;;;;;;-0.04;100.00;102148.50;5094773;28;20031;-80
2024/01/07 08:22:12;;;;;;;21.77;19.48;;;;;;;-0.03;100.00;102150.22;5107048;28;20059;-80
2024/01/07 08:24:37;;;;;;;21.13;19.02;;;;;;;-0.02;100.00;102148.47;5111375;28;20059;-80
2024/01/07 08:27:04;;;;;;;21.83;19.50;;;;;;;-0.02;100.00;102159.69;5120474;27;20026;-81
2024/01/07 08:29:29;;;;;;;21.35;19.15;;;;;;;-0.02;100.00;102161.41;5126650;28;20030;-80
2024/01/07 08:31:55;;;;;;;21.13;19.02;;;;;;;-0.01;100.00;102168.31;5103191;28;20015;-80
2024/01/07 08:34:20;;;;;;;20.45;18.40;;;;;;;-0.01;100.00;102165.72;5121266;27;20503;-81
2024/01/07 08:36:45;;;;;;;21.70;19.50;;;;;;;-0.01;100.00;102163.97;5125388;28;20382;-81
2024/01/07 08:39:11;;;;;;;22.20;19.85;;;;;;;-0.02;100.00;102179.53;5120331;28;20039;-81
2024/01/07 08:41:36;;;;;;;20.60;18.50;;;;;;;-0.04;100.00;102174.38;5120040;28;20384;-81
2024/01/07 08:44:02;;;;;;;21.08;18.88;;;;;;;-0.05;100.00;102174.38;5090145;28;20023;-81
2024/01/07 08:46:27;;;;;;;20.40;18.30;;;;;;;-0.07;100.00;102183.88;5105867;28;20027;-81
2024/01/07 08:48:52;;;;;;;20.58;18.35;;;;;;;-0.05;100.00;102189.91;5113146;27;20030;-81
2024/01/07 08:51:18;;;;;;;12.75;6.95;;;;;;;-0.02;100.00;102193.31;5123508;27;20020;-81
2024/01/07 08:53:44;;;;;;;19.95;17.85;;;;;;;-0.07;100.00;102197.66;5102551;27;20538;-81
2024/01/07 08:56:09;;;;;;;12.35;6.97;;;;;;;-0.02;100.00;102200.22;5117950;27;20529;-81
2024/01/07 08:58:35;;;;;;;20.23;18.13;;;;;;;-0.11;100.00;102195.13;5120314;27;20015;-81
2024/01/07 09:01:00;;;;;;;20.10;18.00;;;;;;;-0.12;100.00;102201.16;5116879;27;20027;-81
2024/01/07 09:03:25;;;;;;;19.83;17.83;;;;;;;-0.12;100.00;102199.44;5120733;27;20502;-81
2024/01/07 09:05:51;;;;;;;19.75;17.75;;;;;;;-0.11;100.00;102202.88;5129586;27;20050;-81
2024/01/07 09:08:16;;;;;;;18.10;16.30;;;;;;;-0.12;100.00;102211.50;5116679;27;20102;-80
2024/01/07 09:10:42;;;;;;;17.90;16.10;;;;;;;-0.15;100.00;102209.81;5119542;27;20126;-81
2024/01/07 09:13:07;;;;;;;18.27;16.48;;;;;;;-0.14;100.00;102211.53;5131727;27;20080;-81
2024/01/07 09:15:33;;;;;;;18.52;16.73;;;;;;;-0.13;100.00;102214.97;5132025;27;20102;-81
2024/01/07 09:17:58;;;;;;;17.77;16.05;;;;;;;-0.11;100.00;102216.69;5112483;27;20027;-81
2024/01/07 09:20:24;;;;;;;17.35;15.65;;;;;;;-0.11;100.00;102226.16;5110944;27;20054;-81
2024/01/07 09:22:49;;;;;;;18.60;16.70;;;;;;;-0.12;100.00;102227.91;5099752;27;20011;-81
2024/01/07 09:25:16;;;;;;;16.17;14.68;;;;;;;-0.11;100.00;102227.03;5091578;28;20077;-81
2024/01/07 09:27:42;;;;;;;17.10;15.38;;;;;;;-0.11;100.00;102239.97;5102272;27;20046;-81
2024/01/07 09:30:10;;;;;;;16.77;14.98;;;;;;;-0.10;100.00;102244.25;5108521;27;20026;-81
2024/01/07 09:32:36;;;;;;;16.83;15.15;;;;;;;-0.13;100.00;102248.59;5109677;28;20031;-81
2024/01/07 09:35:02;;;;;;;13.05;6.25;;;;;;;-0.05;100.00;102252.84;5104882;27;20019;-81
2024/01/07 09:37:28;;;;;;;7.97;5.60;;;;;;;-0.01;100.00;102254.53;5129156;27;20749;-81
2024/01/07 09:39:54;;;;;;;15.57;14.13;;;;;;;-0.09;100.00;102264.09;5109779;27;20015;-80
2024/01/07 09:42:22;;;;;;;15.55;14.10;;;;;;;-0.11;100.00;102265.81;5095247;27;20471;-81
2024/01/07 09:44:50;;;;;;;15.70;14.15;;;;;;;-0.11;100.00;102263.25;5119295;27;20031;-81
2024/01/07 09:47:15;;;;;;;15.95;14.45;;;;;;;-0.11;100.00;102263.25;5108820;28;20106;-81
2024/01/07 09:49:41;;;;;;;16.52;14.93;;;;;;;-0.08;100.00;102277.88;5126294;27;20152;-80
2024/01/07 09:52:08;;;;;;;15.57;14.15;;;;;;;-0.11;100.00;102275.31;5118696;27;20561;-80
2024/01/07 09:54:37;;;;;;;16.15;14.55;;;;;;;-0.13;100.00;102280.50;5112205;27;20387;-80
2024/01/07 09:57:06;;;;;;;16.88;15.18;;;;;;;-0.11;100.00;102283.94;5123691;27;20034;-80
2024/01/07 09:59:32;;;;;;;15.40;13.90;;;;;;;-0.14;100.00;102286.53;5091270;28;20395;-81
2024/01/07 10:01:58;;;;;;;7.70;4.57;;;;;;;-0.05;100.00;102294.22;5091966;28;20030;-80
2024/01/07 10:04:24;;;;;;;9.88;6.65;;;;;;;-0.06;100.00;102308.03;5113528;27;20055;-80
2024/01/07 10:06:50;;;;;;;9.38;6.13;;;;;;;-0.06;100.00;102300.28;5100695;27;20440;-80
2024/01/07 10:09:17;;;;;;;13.15;11.95;;;;;;;-0.20;100.00;102298.66;5122901;27;20126;-80
2024/01/07 10:11:43;;;;;;;13.35;12.07;;;;;;;-0.25;100.00;102306.44;5109178;27;20031;-80
2024/01/07 10:14:09;;;;;;;13.30;12.00;;;;;;;-0.21;100.00;102317.63;5124128;27;20027;-80
2024/01/07 10:16:34;;;;;;;13.82;12.52;;;;;;;-0.23;100.00;102309.03;5094837;28;20032;-81
2024/01/07 10:19:00;;;;;;;13.43;12.05;;;;;;;-0.24;100.00;102313.34;5110043;27;20113;-80
2024/01/07 10:21:25;;;;;;;14.23;12.82;;;;;;;-0.24;100.00;102322.81;5099179;27;20031;-80
2024/01/07 10:23:50;;;;;;;13.75;12.45;;;;;;;-0.25;100.00;102327.13;5127587;27;20026;-80
2024/01/07 10:26:16;;;;;;;13.80;12.50;;;;;;;-0.26;100.00;102322.81;5119468;27;20037;-80
2024/01/07 10:28:43;;;;;;;13.93;12.60;;;;;;;-0.26;100.00;102319.38;5130002;27;20355;-80
2024/01/07 10:31:09;;;;;;;14.20;12.80;;;;;;;-0.29;100.00;102320.25;5114814;27;20031;-80
2024/01/07 10:33:34;;;;;;;14.55;13.25;;;;;;;-0.26;100.00;102325.41;5110016;27;20046;-80
2024/01/07 10:36:03;;;;;;;15.30;13.85;;;;;;;-0.26;100.00;102322.81;5094435;28;20781;-81
2024/01/07 10:38:29;;;;;;;13.82;12.60;;;;;;;-0.25;100.00;102324.53;5079248;27;20031;-81
2024/01/07 10:40:58;;;;;;;10.45;5.85;;;;;;;-0.18;100.00;102320.19;5108959;27;20478;-81
2024/01/07 10:43:28;;;;;;;16.33;14.60;;;;;;;-0.27;100.00;102323.69;5091110;28;20035;-81
2024/01/07 10:45:55;;;;;;;12.70;6.95;;;;;;;-0.17;100.00;102314.16;5120110;27;20027;-81
2024/01/07 10:48:21;;;;;;;16.45;14.75;;;;;;;-0.23;100.00;102316.78;5099479;28;20058;-80
2024/01/07 10:50:50;;;;;;;15.80;14.27;;;;;;;-0.22;100.00;102327.13;5091416;28;20032;-80
2024/01/07 10:53:20;;;;;;;15.60;14.10;;;;;;;-0.28;100.00;102316.81;5125747;27;20015;-81
2024/01/07 10:55:54;;;;;;;9.98;6.10;;;;;;;-0.15;100.00;102327.94;5129374;27;20034;-80
2024/01/07 10:58:23;;;;;;;15.38;13.98;;;;;;;-0.23;100.00;102329.72;5128729;27;20047;-80
2024/01/07 11:00:49;;;;;;;15.40;13.95;;;;;;;-0.24;100.00;102331.44;5111629;27;20019;-80